Airfield :







YOU CAN JOIN US ON...

 
LOGIN :

Register | Disclaimer

   EN    FR    IT 

 









Legend :    VFR   Marginal VFR   IFR   Intensive IFR   Very Intensive IFR
Visi :
Ceiling :
>= 8 km
>= 3000ft
5 to 8 km
1000 to 3000 ft
1500m to 5 km
500 to 1000 ft
800 to 1500m
200 to 500 ft
< 800m
< 200 ft
Symbols :   Thunderstorms  Fog  Heavy snow  Heavy precipitations  Wind > 20 kt






- Airport Elevation : 141 ft
- IATA code : YQI


CYQI - Yarmouth

CURRENT METAR :
  • 071000Z 22003KT 190V260 3/8SM FG SCT250 11/11 A2993 RMK CC4 VIS 1/8SM SE CONTRAILS SLP137

EXPIRED METARs :
  • 070900Z VRB02KT 3/8SM FG SKC 11/11 A2992 RMK VIS 0 SE SLP133
  • 070847Z VRB02KT 1/2SM BCFG SKC 11/11 A2991 RMK TOWER VIS 7SM SLP132
  • 070826Z 26002KT 2SM BCFG SKC 10/10 A2991 RMK SLP131
  • 070812Z 26003KT 210V270 1/2SM BCFG SKC 11/11 A2991 RMK TOWER VIS 7SM SLP131
  • 070800Z 23002KT 1SM BCFG SKC 11/11 A2991 RMK TOWER VIS 7SM SLP130
  • 070747Z VRB02KT 2SM BCFG SKC 11/11 A2991 RMK TOWER VIS 7SM VIS 1SM S SLP130
  • 070727Z 25004KT 1/2SM BCFG SKC 10/10 A2990 RMK TOWER VIS 7SM SLP129

TAF AMD TAF CYQI
Valid from the 07 at 07:00 until the 07 at 18:00 UTC


070708Z 0707/0718 26005KT 2SM BR FEW250
TEMPO 0707/0713 1/2SM -DZ FG BKN003
FM071300 25008KT P6SM FEW006 SCT160 RMK NXT FCST BY 071200Z
CZQM FIR / North America



MET'MAP, your aeronautical weather chart ! - Copyright ORBIFLY December 2007 - Disclaimer

ORBIFLY MET'MAP TEAM :

Programming & Development : Alexandra Zaïnal
Original concept : Baudouin d'Aumeries
Technical & hardware support : Manuel Goepfert
Assistance : Marc-Olivier Méhu




SOURCES & CREDITS :

   NOAA